sensor_id;sensor_type;location;lat;lon;timestamp;pressure;altitude;pressure_sealevel;temperature;humidity
62055;BME280;48653;51.742;-1.256;2023-05-23T00:01:56;101960.21;;;13.83;35.63
62055;BME280;48653;51.742;-1.256;2023-05-23T00:04:22;101958.67;;;13.91;35.51
62055;BME280;48653;51.742;-1.256;2023-05-23T00:06:47;101960.17;;;14.44;35.64
62055;BME280;48653;51.742;-1.256;2023-05-23T00:09:13;101966.18;;;13.59;35.58
62055;BME280;48653;51.742;-1.256;2023-05-23T00:11:38;101969.86;;;13.74;35.26
62055;BME280;48653;51.742;-1.256;2023-05-23T00:14:04;101968.75;;;13.81;35.41
62055;BME280;48653;51.742;-1.256;2023-05-23T00:16:29;101963.08;;;14.20;35.15
62055;BME280;48653;51.742;-1.256;2023-05-23T00:18:54;101961.60;;;14.42;34.98
62055;BME280;48653;51.742;-1.256;2023-05-23T00:21:20;101965.25;;;13.92;35.62
62055;BME280;48653;51.742;-1.256;2023-05-23T00:23:45;101963.44;;;13.56;35.10
62055;BME280;48653;51.742;-1.256;2023-05-23T00:26:11;101962.75;;;13.79;35.39
62055;BME280;48653;51.742;-1.256;2023-05-23T00:28:36;101960.29;;;14.22;35.02
62055;BME280;48653;51.742;-1.256;2023-05-23T00:31:01;101956.68;;;14.28;35.10
62055;BME280;48653;51.742;-1.256;2023-05-23T00:33:27;101960.68;;;14.17;35.75
62055;BME280;48653;51.742;-1.256;2023-05-23T00:35:52;101964.02;;;13.64;37.00
62055;BME280;48653;51.742;-1.256;2023-05-23T00:38:19;101963.12;;;13.85;36.97
62055;BME280;48653;51.742;-1.256;2023-05-23T00:40:43;101962.61;;;13.85;36.61
62055;BME280;48653;51.742;-1.256;2023-05-23T00:43:09;101959.66;;;13.89;36.65
62055;BME280;48653;51.742;-1.256;2023-05-23T00:45:41;101958.85;;;13.75;36.65
62055;BME280;48653;51.742;-1.256;2023-05-23T00:47:59;101958.28;;;13.89;36.71
62055;BME280;48653;51.742;-1.256;2023-05-23T00:52:51;101957.83;;;13.60;36.93
62055;BME280;48653;51.742;-1.256;2023-05-23T00:55:15;101962.19;;;13.95;37.52
62055;BME280;48653;51.742;-1.256;2023-05-23T00:57:41;101957.57;;;14.19;37.06
62055;BME280;48653;51.742;-1.256;2023-05-23T01:00:07;101957.14;;;13.68;37.24
62055;BME280;48653;51.742;-1.256;2023-05-23T01:02:32;101956.13;;;13.52;38.34
62055;BME280;48653;51.742;-1.256;2023-05-23T01:04:57;101952.96;;;13.59;38.30
62055;BME280;48653;51.742;-1.256;2023-05-23T01:07:22;101954.66;;;13.55;38.11
62055;BME280;48653;51.742;-1.256;2023-05-23T01:09:48;101952.73;;;13.30;37.64
62055;BME280;48653;51.742;-1.256;2023-05-23T01:12:19;101955.41;;;13.63;37.95
62055;BME280;48653;51.742;-1.256;2023-05-23T01:14:44;101959.24;;;13.33;38.62
62055;BME280;48653;51.742;-1.256;2023-05-23T01:17:10;101961.53;;;13.61;37.68
62055;BME280;48653;51.742;-1.256;2023-05-23T01:19:46;101962.85;;;13.18;39.02
62055;BME280;48653;51.742;-1.256;2023-05-23T01:21:55;101963.34;;;13.20;38.58
62055;BME280;48653;51.742;-1.256;2023-05-23T01:24:31;101966.56;;;12.76;39.60
62055;BME280;48653;51.742;-1.256;2023-05-23T01:26:56;101964.84;;;13.41;38.39
62055;BME280;48653;51.742;-1.256;2023-05-23T01:29:13;101959.84;;;13.21;37.71
62055;BME280;48653;51.742;-1.256;2023-05-23T01:31:36;101961.18;;;13.35;36.93
62055;BME280;48653;51.742;-1.256;2023-05-23T01:34:02;101962.13;;;12.51;37.51
62055;BME280;48653;51.742;-1.256;2023-05-23T01:36:27;101964.76;;;12.63;37.76
62055;BME280;48653;51.742;-1.256;2023-05-23T01:38:52;101967.82;;;13.06;37.60
62055;BME280;48653;51.742;-1.256;2023-05-23T01:43:43;101977.12;;;13.32;36.90
62055;BME280;48653;51.742;-1.256;2023-05-23T01:46:08;101973.95;;;12.91;37.34
62055;BME280;48653;51.742;-1.256;2023-05-23T01:48:34;101978.18;;;13.00;37.34
62055;BME280;48653;51.742;-1.256;2023-05-23T01:50:59;101976.36;;;12.81;38.22
62055;BME280;48653;51.742;-1.256;2023-05-23T01:53:24;101976.79;;;12.94;37.77
62055;BME280;48653;51.742;-1.256;2023-05-23T01:55:50;101975.40;;;13.30;38.02
62055;BME280;48653;51.742;-1.256;2023-05-23T01:58:15;101974.39;;;12.30;39.16
62055;BME280;48653;51.742;-1.256;2023-05-23T02:00:41;101971.95;;;12.85;38.46
62055;BME280;48653;51.742;-1.256;2023-05-23T02:03:06;101972.94;;;12.82;38.12
62055;BME280;48653;51.742;-1.256;2023-05-23T02:05:32;101965.55;;;12.45;38.53
62055;BME280;48653;51.742;-1.256;2023-05-23T02:07:59;101963.82;;;12.31;38.27
62055;BME280;48653;51.742;-1.256;2023-05-23T02:10:23;101965.51;;;12.70;37.78
62055;BME280;48653;51.742;-1.256;2023-05-23T02:15:16;101978.01;;;12.96;37.40
62055;BME280;48653;51.742;-1.256;2023-05-23T02:17:40;101978.76;;;12.03;38.53
62055;BME280;48653;51.742;-1.256;2023-05-23T02:20:07;101978.56;;;12.62;37.54
62055;BME280;48653;51.742;-1.256;2023-05-23T02:22:31;101980.57;;;12.88;38.27
62055;BME280;48653;51.742;-1.256;2023-05-23T02:24:56;101981.91;;;13.16;37.20
62055;BME280;48653;51.742;-1.256;2023-05-23T02:27:22;101982.61;;;12.57;38.49
62055;BME280;48653;51.742;-1.256;2023-05-23T02:29:47;101983.09;;;12.90;38.25
62055;BME280;48653;51.742;-1.256;2023-05-23T02:32:12;101984.53;;;12.73;38.63
62055;BME280;48653;51.742;-1.256;2023-05-23T02:34:38;101988.70;;;12.93;38.35
62055;BME280;48653;51.742;-1.256;2023-05-23T02:37:03;101986.92;;;12.77;38.26
62055;BME280;48653;51.742;-1.256;2023-05-23T02:39:28;101989.03;;;13.18;38.05
62055;BME280;48653;51.742;-1.256;2023-05-23T02:41:53;101992.37;;;13.07;37.53
62055;BME280;48653;51.742;-1.256;2023-05-23T02:44:19;101990.58;;;12.93;38.21
62055;BME280;48653;51.742;-1.256;2023-05-23T02:46:44;101990.47;;;12.33;38.76
62055;BME280;48653;51.742;-1.256;2023-05-23T02:49:10;101988.19;;;12.62;38.11
62055;BME280;48653;51.742;-1.256;2023-05-23T02:51:35;101990.45;;;12.66;38.20
62055;BME280;48653;51.742;-1.256;2023-05-23T02:54:02;101990.24;;;12.73;37.83
62055;BME280;48653;51.742;-1.256;2023-05-23T02:56:26;101988.26;;;12.60;38.30
62055;BME280;48653;51.742;-1.256;2023-05-23T02:58:51;101990.59;;;12.76;38.32
62055;BME280;48653;51.742;-1.256;2023-05-23T03:01:17;101988.88;;;13.01;39.19
62055;BME280;48653;51.742;-1.256;2023-05-23T03:03:42;101988.81;;;12.51;39.11
62055;BME280;48653;51.742;-1.256;2023-05-23T03:06:07;101987.77;;;12.40;39.52
62055;BME280;48653;51.742;-1.256;2023-05-23T03:08:33;101986.95;;;12.14;40.03
62055;BME280;48653;51.742;-1.256;2023-05-23T03:10:59;101989.35;;;12.41;40.51
62055;BME280;48653;51.742;-1.256;2023-05-23T03:13:24;101989.98;;;12.30;40.23
62055;BME280;48653;51.742;-1.256;2023-05-23T03:15:50;101986.73;;;11.99;41.04
62055;BME280;48653;51.742;-1.256;2023-05-23T03:18:15;101990.67;;;11.99;40.52
62055;BME280;48653;51.742;-1.256;2023-05-23T03:20:41;101992.51;;;12.39;40.63
62055;BME280;48653;51.742;-1.256;2023-05-23T03:23:06;101994.58;;;12.19;40.35
62055;BME280;48653;51.742;-1.256;2023-05-23T03:25:32;101993.01;;;11.70;40.49
62055;BME280;48653;51.742;-1.256;2023-05-23T03:27:57;101996.14;;;11.73;41.40
62055;BME280;48653;51.742;-1.256;2023-05-23T03:30:23;101993.90;;;12.13;41.11
62055;BME280;48653;51.742;-1.256;2023-05-23T03:32:48;101991.26;;;11.71;41.50
62055;BME280;48653;51.742;-1.256;2023-05-23T03:35:14;101994.38;;;11.71;41.43
62055;BME280;48653;51.742;-1.256;2023-05-23T03:37:39;101994.94;;;11.35;42.51
62055;BME280;48653;51.742;-1.256;2023-05-23T03:40:07;101990.94;;;11.75;41.43
62055;BME280;48653;51.742;-1.256;2023-05-23T03:42:30;101989.74;;;11.71;41.70
62055;BME280;48653;51.742;-1.256;2023-05-23T03:44:55;101994.36;;;11.63;41.90
62055;BME280;48653;51.742;-1.256;2023-05-23T03:47:21;101991.55;;;11.67;41.75
62055;BME280;48653;51.742;-1.256;2023-05-23T03:49:46;101989.95;;;11.71;42.11
62055;BME280;48653;51.742;-1.256;2023-05-23T03:52:11;101990.96;;;11.65;41.41
62055;BME280;48653;51.742;-1.256;2023-05-23T03:54:40;101990.11;;;11.29;42.87
62055;BME280;48653;51.742;-1.256;2023-05-23T03:57:02;101990.50;;;11.54;42.06
62055;BME280;48653;51.742;-1.256;2023-05-23T03:59:28;101992.95;;;11.55;42.66
62055;BME280;48653;51.742;-1.256;2023-05-23T04:01:53;101990.14;;;11.57;42.39
62055;BME280;48653;51.742;-1.256;2023-05-23T04:04:19;101992.34;;;11.54;42.34
62055;BME280;48653;51.742;-1.256;2023-05-23T04:06:44;101995.34;;;11.05;42.34
62055;BME280;48653;51.742;-1.256;2023-05-23T04:09:10;101996.23;;;11.45;42.38
62055;BME280;48653;51.742;-1.256;2023-05-23T04:11:35;101999.58;;;11.25;42.64
62055;BME280;48653;51.742;-1.256;2023-05-23T04:14:00;101999.87;;;10.95;43.54
62055;BME280;48653;51.742;-1.256;2023-05-23T04:16:25;102003.96;;;10.85;42.90
62055;BME280;48653;51.742;-1.256;2023-05-23T04:18:51;102005.04;;;11.35;43.64
62055;BME280;48653;51.742;-1.256;2023-05-23T04:21:16;102005.64;;;11.22;42.34
62055;BME280;48653;51.742;-1.256;2023-05-23T04:23:42;102007.20;;;11.20;43.01
62055;BME280;48653;51.742;-1.256;2023-05-23T04:26:07;102014.07;;;11.09;42.59
62055;BME280;48653;51.742;-1.256;2023-05-23T04:28:33;102015.20;;;11.49;42.38
62055;BME280;48653;51.742;-1.256;2023-05-23T04:31:04;102014.48;;;11.45;42.13
62055;BME280;48653;51.742;-1.256;2023-05-23T04:33:24;102021.34;;;11.60;41.93
62055;BME280;48653;51.742;-1.256;2023-05-23T04:35:49;102020.01;;;11.82;42.07
62055;BME280;48653;51.742;-1.256;2023-05-23T04:38:14;102023.13;;;11.44;43.08
62055;BME280;48653;51.742;-1.256;2023-05-23T04:40:40;102028.04;;;11.44;43.17
62055;BME280;48653;51.742;-1.256;2023-05-23T04:43:06;102030.33;;;11.29;43.72
62055;BME280;48653;51.742;-1.256;2023-05-23T04:45:32;102033.05;;;11.57;43.57
62055;BME280;48653;51.742;-1.256;2023-05-23T04:47:57;102035.75;;;11.56;42.79
62055;BME280;48653;51.742;-1.256;2023-05-23T04:50:23;102043.44;;;11.49;43.64
62055;BME280;48653;51.742;-1.256;2023-05-23T04:52:48;102042.11;;;11.56;43.95
62055;BME280;48653;51.742;-1.256;2023-05-23T04:55:14;102040.25;;;11.31;43.97
62055;BME280;48653;51.742;-1.256;2023-05-23T04:57:39;102041.69;;;11.24;44.29
62055;BME280;48653;51.742;-1.256;2023-05-23T05:00:06;102038.33;;;11.75;43.92
62055;BME280;48653;51.742;-1.256;2023-05-23T05:02:30;102035.17;;;11.58;43.91
62055;BME280;48653;51.742;-1.256;2023-05-23T05:04:55;102037.07;;;11.97;43.42
62055;BME280;48653;51.742;-1.256;2023-05-23T05:07:21;102038.02;;;11.59;44.72
62055;BME280;48653;51.742;-1.256;2023-05-23T05:09:46;102037.20;;;11.67;43.86
62055;BME280;48653;51.742;-1.256;2023-05-23T05:12:12;102037.63;;;11.83;44.03
62055;BME280;48653;51.742;-1.256;2023-05-23T05:14:37;102033.85;;;12.15;42.78
62055;BME280;48653;51.742;-1.256;2023-05-23T05:17:03;102037.82;;;12.43;42.52
62055;BME280;48653;51.742;-1.256;2023-05-23T05:19:28;102038.89;;;12.29;42.66
62055;BME280;48653;51.742;-1.256;2023-05-23T05:22:00;102038.04;;;12.76;42.11
62055;BME280;48653;51.742;-1.256;2023-05-23T05:24:19;102041.34;;;12.10;42.19
62055;BME280;48653;51.742;-1.256;2023-05-23T05:26:46;102048.68;;;12.62;41.90
62055;BME280;48653;51.742;-1.256;2023-05-23T05:29:09;102052.46;;;12.77;40.99
62055;BME280;48653;51.742;-1.256;2023-05-23T05:31:35;102058.55;;;12.01;42.22
62055;BME280;48653;51.742;-1.256;2023-05-23T05:34:00;102063.61;;;11.64;43.33
62055;BME280;48653;51.742;-1.256;2023-05-23T05:36:25;102068.52;;;11.66;43.43
62055;BME280;48653;51.742;-1.256;2023-05-23T05:38:51;102069.92;;;12.54;42.58
62055;BME280;48653;51.742;-1.256;2023-05-23T05:41:16;102070.17;;;12.59;42.00
62055;BME280;48653;51.742;-1.256;2023-05-23T05:43:41;102068.78;;;12.61;42.07
62055;BME280;48653;51.742;-1.256;2023-05-23T05:46:06;102069.61;;;12.64;41.88
62055;BME280;48653;51.742;-1.256;2023-05-23T05:48:32;102068.21;;;12.76;41.55
62055;BME280;48653;51.742;-1.256;2023-05-23T05:50:57;102066.13;;;13.22;41.20
62055;BME280;48653;51.742;-1.256;2023-05-23T05:53:23;102063.22;;;12.93;41.37
62055;BME280;48653;51.742;-1.256;2023-05-23T05:55:48;102064.52;;;13.30;41.20
62055;BME280;48653;51.742;-1.256;2023-05-23T05:58:13;102065.96;;;13.92;41.05
62055;BME280;48653;51.742;-1.256;2023-05-23T06:00:38;102064.80;;;13.48;41.49
62055;BME280;48653;51.742;-1.256;2023-05-23T06:03:04;102067.78;;;12.80;42.39
62055;BME280;48653;51.742;-1.256;2023-05-23T06:05:30;102069.32;;;12.81;42.91
62055;BME280;48653;51.742;-1.256;2023-05-23T06:07:55;102065.34;;;13.50;41.78
62055;BME280;48653;51.742;-1.256;2023-05-23T06:10:21;102068.67;;;13.23;42.09
62055;BME280;48653;51.742;-1.256;2023-05-23T06:12:46;102065.34;;;13.49;42.78
62055;BME280;48653;51.742;-1.256;2023-05-23T06:15:11;102061.16;;;13.84;41.75
62055;BME280;48653;51.742;-1.256;2023-05-23T06:17:36;102059.04;;;13.45;41.64
62055;BME280;48653;51.742;-1.256;2023-05-23T06:20:01;102059.27;;;13.65;41.84
62055;BME280;48653;51.742;-1.256;2023-05-23T06:22:27;102060.23;;;13.59;42.20
62055;BME280;48653;51.742;-1.256;2023-05-23T06:24:52;102057.78;;;14.39;41.31
62055;BME280;48653;51.742;-1.256;2023-05-23T06:27:17;102054.60;;;13.86;41.79
62055;BME280;48653;51.742;-1.256;2023-05-23T06:29:43;102056.35;;;14.18;41.60
62055;BME280;48653;51.742;-1.256;2023-05-23T06:32:09;102057.54;;;13.68;41.99
62055;BME280;48653;51.742;-1.256;2023-05-23T06:34:34;102057.39;;;13.21;42.20
62055;BME280;48653;51.742;-1.256;2023-05-23T06:36:59;102064.14;;;13.39;41.87
62055;BME280;48653;51.742;-1.256;2023-05-23T06:39:24;102060.12;;;14.10;41.01
62055;BME280;48653;51.742;-1.256;2023-05-23T06:41:49;102060.41;;;14.91;40.38
62055;BME280;48653;51.742;-1.256;2023-05-23T06:44:15;102060.83;;;14.82;40.21
62055;BME280;48653;51.742;-1.256;2023-05-23T06:46:42;102058.28;;;14.65;40.48
62055;BME280;48653;51.742;-1.256;2023-05-23T06:49:05;102056.25;;;15.16;39.03
62055;BME280;48653;51.742;-1.256;2023-05-23T06:51:31;102061.31;;;14.35;40.75
62055;BME280;48653;51.742;-1.256;2023-05-23T06:53:56;102059.62;;;14.83;41.07
62055;BME280;48653;51.742;-1.256;2023-05-23T06:56:22;102061.83;;;14.60;40.95
62055;BME280;48653;51.742;-1.256;2023-05-23T06:58:47;102063.42;;;14.07;42.12
62055;BME280;48653;51.742;-1.256;2023-05-23T07:01:12;102068.82;;;14.37;41.85
62055;BME280;48653;51.742;-1.256;2023-05-23T07:03:37;102066.97;;;14.61;41.76
62055;BME280;48653;51.742;-1.256;2023-05-23T07:06:02;102069.64;;;15.32;40.87
62055;BME280;48653;51.742;-1.256;2023-05-23T07:08:27;102069.94;;;14.58;41.81
62055;BME280;48653;51.742;-1.256;2023-05-23T07:10:53;102072.39;;;15.25;40.56
62055;BME280;48653;51.742;-1.256;2023-05-23T07:13:18;102072.46;;;15.11;40.69
62055;BME280;48653;51.742;-1.256;2023-05-23T07:15:43;102073.15;;;15.37;40.59
62055;BME280;48653;51.742;-1.256;2023-05-23T07:18:08;102075.42;;;15.17;39.72
62055;BME280;48653;51.742;-1.256;2023-05-23T07:20:33;102074.53;;;15.94;39.73
62055;BME280;48653;51.742;-1.256;2023-05-23T07:22:59;102083.46;;;15.30;38.84
62055;BME280;48653;51.742;-1.256;2023-05-23T07:25:23;102083.84;;;15.56;38.08
62055;BME280;48653;51.742;-1.256;2023-05-23T07:27:49;102084.96;;;15.46;38.84
62055;BME280;48653;51.742;-1.256;2023-05-23T07:30:14;102083.84;;;15.86;38.20
62055;BME280;48653;51.742;-1.256;2023-05-23T07:32:39;102084.67;;;15.59;38.79
62055;BME280;48653;51.742;-1.256;2023-05-23T07:35:05;102088.66;;;15.63;38.75
62055;BME280;48653;51.742;-1.256;2023-05-23T07:37:29;102088.23;;;15.58;38.02
62055;BME280;48653;51.742;-1.256;2023-05-23T07:39:54;102092.29;;;15.94;38.05
62055;BME280;48653;51.742;-1.256;2023-05-23T07:42:20;102095.47;;;15.94;38.45
62055;BME280;48653;51.742;-1.256;2023-05-23T07:44:45;102101.57;;;15.61;38.92
62055;BME280;48653;51.742;-1.256;2023-05-23T07:47:10;102098.85;;;15.20;39.64
62055;BME280;48653;51.742;-1.256;2023-05-23T07:49:35;102100.41;;;14.67;40.12
62055;BME280;48653;51.742;-1.256;2023-05-23T07:52:00;102100.78;;;14.32;40.54
62055;BME280;48653;51.742;-1.256;2023-05-23T07:54:25;102099.73;;;15.07;39.47
62055;BME280;48653;51.742;-1.256;2023-05-23T07:56:52;102092.85;;;15.65;39.06
62055;BME280;48653;51.742;-1.256;2023-05-23T07:59:16;102093.40;;;15.61;38.45
62055;BME280;48653;51.742;-1.256;2023-05-23T08:01:46;102096.44;;;14.79;38.17
62055;BME280;48653;51.742;-1.256;2023-05-23T08:04:06;102099.09;;;15.41;37.91
62055;BME280;48653;51.742;-1.256;2023-05-23T08:06:32;102100.11;;;16.34;37.28
62055;BME280;48653;51.742;-1.256;2023-05-23T08:08:57;102098.03;;;15.01;38.39
62055;BME280;48653;51.742;-1.256;2023-05-23T08:11:22;102094.97;;;15.37;38.85
62055;BME280;48653;51.742;-1.256;2023-05-23T08:13:47;102089.67;;;15.24;38.71
62055;BME280;48653;51.742;-1.256;2023-05-23T08:16:12;102083.96;;;15.29;37.54
62055;BME280;48653;51.742;-1.256;2023-05-23T08:18:39;102077.70;;;15.50;38.05
62055;BME280;48653;51.742;-1.256;2023-05-23T08:21:03;102076.56;;;16.01;37.92
62055;BME280;48653;51.742;-1.256;2023-05-23T08:23:28;102075.72;;;16.39;37.81
62055;BME280;48653;51.742;-1.256;2023-05-23T08:25:54;102074.65;;;16.19;37.78
62055;BME280;48653;51.742;-1.256;2023-05-23T08:28:19;102072.51;;;16.86;36.67
62055;BME280;48653;51.742;-1.256;2023-05-23T08:30:44;102072.94;;;16.34;36.57
62055;BME280;48653;51.742;-1.256;2023-05-23T08:33:09;102072.38;;;16.85;36.13
62055;BME280;48653;51.742;-1.256;2023-05-23T08:35:34;102070.31;;;17.52;35.84
62055;BME280;48653;51.742;-1.256;2023-05-23T08:37:59;102071.83;;;17.76;34.84
62055;BME280;48653;51.742;-1.256;2023-05-23T08:40:26;102079.10;;;17.13;36.15
62055;BME280;48653;51.742;-1.256;2023-05-23T08:42:50;102077.49;;;16.77;35.86
62055;BME280;48653;51.742;-1.256;2023-05-23T08:45:15;102076.42;;;16.71;37.07
62055;BME280;48653;51.742;-1.256;2023-05-23T08:47:42;102070.46;;;17.31;35.67
62055;BME280;48653;51.742;-1.256;2023-05-23T08:50:06;102070.37;;;17.64;35.33
62055;BME280;48653;51.742;-1.256;2023-05-23T08:52:31;102069.85;;;17.78;34.64
62055;BME280;48653;51.742;-1.256;2023-05-23T08:54:55;102070.04;;;19.17;33.08
62055;BME280;48653;51.742;-1.256;2023-05-23T08:57:20;102068.13;;;18.65;31.97
62055;BME280;48653;51.742;-1.256;2023-05-23T08:59:46;102067.48;;;18.78;33.30
62055;BME280;48653;51.742;-1.256;2023-05-23T09:02:10;102068.71;;;18.97;32.17
62055;BME280;48653;51.742;-1.256;2023-05-23T09:04:36;102070.96;;;18.68;33.07
62055;BME280;48653;51.742;-1.256;2023-05-23T09:07:02;102073.18;;;19.36;32.05
62055;BME280;48653;51.742;-1.256;2023-05-23T09:09:26;102072.41;;;19.88;30.90
62055;BME280;48653;51.742;-1.256;2023-05-23T09:11:51;102078.85;;;19.55;31.70
62055;BME280;48653;51.742;-1.256;2023-05-23T09:14:16;102073.00;;;20.18;29.97
62055;BME280;48653;51.742;-1.256;2023-05-23T09:16:45;102074.41;;;20.22;29.43
62055;BME280;48653;51.742;-1.256;2023-05-23T09:19:10;102082.92;;;20.62;29.85
62055;BME280;48653;51.742;-1.256;2023-05-23T09:21:31;102084.63;;;20.66;30.51
62055;BME280;48653;51.742;-1.256;2023-05-23T09:23:57;102086.06;;;20.95;29.31
62055;BME280;48653;51.742;-1.256;2023-05-23T09:26:21;102089.15;;;21.01;28.32
62055;BME280;48653;51.742;-1.256;2023-05-23T09:28:47;102087.51;;;19.85;29.84
62055;BME280;48653;51.742;-1.256;2023-05-23T09:31:12;102090.37;;;19.53;30.21
62055;BME280;48653;51.742;-1.256;2023-05-23T09:33:39;102088.57;;;19.52;31.29
62055;BME280;48653;51.742;-1.256;2023-05-23T09:36:03;102084.16;;;18.57;33.51
62055;BME280;48653;51.742;-1.256;2023-05-23T09:38:27;102082.68;;;18.83;31.92
62055;BME280;48653;51.742;-1.256;2023-05-23T09:40:53;102087.68;;;19.41;32.39
62055;BME280;48653;51.742;-1.256;2023-05-23T09:43:17;102089.76;;;19.21;31.56
62055;BME280;48653;51.742;-1.256;2023-05-23T09:45:42;102097.93;;;18.94;31.42
62055;BME280;48653;51.742;-1.256;2023-05-23T09:48:11;102103.90;;;18.85;32.33
62055;BME280;48653;51.742;-1.256;2023-05-23T09:50:32;102096.24;;;17.77;33.22
62055;BME280;48653;51.742;-1.256;2023-05-23T09:52:57;102097.99;;;18.62;32.80
62055;BME280;48653;51.742;-1.256;2023-05-23T09:55:22;102096.18;;;18.72;31.73
62055;BME280;48653;51.742;-1.256;2023-05-23T09:57:52;102096.04;;;18.45;31.72
62055;BME280;48653;51.742;-1.256;2023-05-23T10:00:13;102093.77;;;18.18;31.60
62055;BME280;48653;51.742;-1.256;2023-05-23T10:05:05;102087.81;;;18.44;32.23
62055;BME280;48653;51.742;-1.256;2023-05-23T10:07:28;102074.72;;;18.76;32.56
62055;BME280;48653;51.742;-1.256;2023-05-23T10:09:58;102075.62;;;19.04;31.24
62055;BME280;48653;51.742;-1.256;2023-05-23T10:14:49;102075.88;;;18.87;31.45
62055;BME280;48653;51.742;-1.256;2023-05-23T10:17:14;102080.15;;;18.59;30.73
62055;BME280;48653;51.742;-1.256;2023-05-23T10:19:39;102085.13;;;18.42;31.54
62055;BME280;48653;51.742;-1.256;2023-05-23T10:22:01;102087.01;;;18.57;31.75
62055;BME280;48653;51.742;-1.256;2023-05-23T10:24:25;102086.41;;;19.06;30.53
62055;BME280;48653;51.742;-1.256;2023-05-23T10:26:50;102092.35;;;18.97;30.46
62055;BME280;48653;51.742;-1.256;2023-05-23T10:29:15;102090.57;;;19.95;29.90
62055;BME280;48653;51.742;-1.256;2023-05-23T10:31:40;102089.81;;;20.23;29.88
62055;BME280;48653;51.742;-1.256;2023-05-23T10:34:11;102087.20;;;19.62;28.76
62055;BME280;48653;51.742;-1.256;2023-05-23T10:36:34;102085.90;;;19.81;30.32
62055;BME280;48653;51.742;-1.256;2023-05-23T10:39:03;102087.44;;;20.52;28.68
62055;BME280;48653;51.742;-1.256;2023-05-23T10:41:24;102088.79;;;18.83;29.66
62055;BME280;48653;51.742;-1.256;2023-05-23T10:43:54;102083.93;;;20.14;28.24
62055;BME280;48653;51.742;-1.256;2023-05-23T10:46:12;102085.30;;;20.73;28.30
62055;BME280;48653;51.742;-1.256;2023-05-23T10:48:41;102091.27;;;21.49;27.84
62055;BME280;48653;51.742;-1.256;2023-05-23T10:51:03;102088.45;;;20.81;27.87
62055;BME280;48653;51.742;-1.256;2023-05-23T10:53:28;102085.41;;;21.38;27.17
62055;BME280;48653;51.742;-1.256;2023-05-23T10:55:52;102090.53;;;20.62;27.17
62055;BME280;48653;51.742;-1.256;2023-05-23T10:58:18;102091.61;;;20.48;28.13
62055;BME280;48653;51.742;-1.256;2023-05-23T11:00:50;102089.22;;;20.32;29.38
62055;BME280;48653;51.742;-1.256;2023-05-23T11:03:08;102093.07;;;19.79;28.39
62055;BME280;48653;51.742;-1.256;2023-05-23T11:05:32;102092.82;;;20.17;28.07
62055;BME280;48653;51.742;-1.256;2023-05-23T11:08:07;102093.27;;;20.64;27.82
62055;BME280;48653;51.742;-1.256;2023-05-23T11:10:22;102091.88;;;21.43;28.67
62055;BME280;48653;51.742;-1.256;2023-05-23T11:12:48;102088.39;;;22.66;26.33
62055;BME280;48653;51.742;-1.256;2023-05-23T11:15:19;102085.94;;;22.25;26.44
62055;BME280;48653;51.742;-1.256;2023-05-23T11:20:04;102084.98;;;21.26;27.40
62055;BME280;48653;51.742;-1.256;2023-05-23T11:22:29;102087.88;;;22.15;27.95
62055;BME280;48653;51.742;-1.256;2023-05-23T11:24:54;102087.33;;;23.02;26.01
62055;BME280;48653;51.742;-1.256;2023-05-23T11:27:26;102083.50;;;22.66;25.38
62055;BME280;48653;51.742;-1.256;2023-05-23T11:29:43;102087.65;;;22.24;25.23
62055;BME280;48653;51.742;-1.256;2023-05-23T11:32:10;102090.65;;;21.31;27.49
62055;BME280;48653;51.742;-1.256;2023-05-23T11:34:34;102085.86;;;21.39;26.87
62055;BME280;48653;51.742;-1.256;2023-05-23T11:36:59;102085.74;;;20.95;27.72
62055;BME280;48653;51.742;-1.256;2023-05-23T11:39:24;102085.44;;;21.18;28.19
62055;BME280;48653;51.742;-1.256;2023-05-23T11:41:58;102086.28;;;20.89;28.76
62055;BME280;48653;51.742;-1.256;2023-05-23T11:44:14;102083.82;;;19.16;29.07
62055;BME280;48653;51.742;-1.256;2023-05-23T11:46:39;102080.37;;;19.98;30.21
62055;BME280;48653;51.742;-1.256;2023-05-23T11:49:09;102081.48;;;19.83;31.13
62055;BME280;48653;51.742;-1.256;2023-05-23T11:51:29;102081.05;;;20.67;28.91
62055;BME280;48653;51.742;-1.256;2023-05-23T11:53:59;102081.26;;;20.84;28.71
62055;BME280;48653;51.742;-1.256;2023-05-23T11:56:19;102078.05;;;20.87;28.43
62055;BME280;48653;51.742;-1.256;2023-05-23T11:58:45;102079.42;;;21.59;26.12
62055;BME280;48653;51.742;-1.256;2023-05-23T12:01:11;102079.33;;;20.45;27.13
62055;BME280;48653;51.742;-1.256;2023-05-23T12:03:45;102073.56;;;20.60;28.14
62055;BME280;48653;51.742;-1.256;2023-05-23T12:06:00;102075.69;;;20.69;28.49
62055;BME280;48653;51.742;-1.256;2023-05-23T12:08:25;102078.54;;;20.49;27.78
62055;BME280;48653;51.742;-1.256;2023-05-23T12:10:51;102073.49;;;20.02;28.59
62055;BME280;48653;51.742;-1.256;2023-05-23T12:13:16;102074.79;;;19.86;27.74
62055;BME280;48653;51.742;-1.256;2023-05-23T12:15:41;102076.97;;;20.69;27.81
62055;BME280;48653;51.742;-1.256;2023-05-23T12:18:06;102075.41;;;20.70;29.22
62055;BME280;48653;51.742;-1.256;2023-05-23T12:20:31;102070.55;;;20.91;27.51
62055;BME280;48653;51.742;-1.256;2023-05-23T12:22:56;102068.43;;;20.70;27.61
62055;BME280;48653;51.742;-1.256;2023-05-23T12:25:21;102069.89;;;21.20;27.31
62055;BME280;48653;51.742;-1.256;2023-05-23T12:27:48;102068.39;;;20.38;27.33
62055;BME280;48653;51.742;-1.256;2023-05-23T12:30:14;102061.35;;;21.62;27.74
62055;BME280;48653;51.742;-1.256;2023-05-23T12:32:39;102061.13;;;21.57;28.04
62055;BME280;48653;51.742;-1.256;2023-05-23T12:35:03;102058.36;;;21.41;27.66
62055;BME280;48653;51.742;-1.256;2023-05-23T12:37:27;102062.02;;;21.04;28.93
62055;BME280;48653;51.742;-1.256;2023-05-23T12:39:52;102060.68;;;21.26;26.80
62055;BME280;48653;51.742;-1.256;2023-05-23T12:42:18;102057.37;;;20.45;26.93
62055;BME280;48653;51.742;-1.256;2023-05-23T12:44:43;102056.57;;;20.79;26.39